sensor_id;sensor_type;location;lat;lon;timestamp;temperature;humidity
25208;DHT22;13153;52.316;21.166;2023-11-21T00:00:31;-0.60;99.90
25208;DHT22;13153;52.316;21.166;2023-11-21T00:02:57;-0.60;99.90
25208;DHT22;13153;52.316;21.166;2023-11-21T00:05:23;-0.70;99.90
25208;DHT22;13153;52.316;21.166;2023-11-21T00:07:49;-0.60;99.90
25208;DHT22;13153;52.316;21.166;2023-11-21T00:10:15;-0.70;99.90
25208;DHT22;13153;52.316;21.166;2023-11-21T00:12:41;-0.70;99.90
25208;DHT22;13153;52.316;21.166;2023-11-21T00:15:08;-0.70;99.90
25208;DHT22;13153;52.316;21.166;2023-11-21T00:17:40;-0.70;99.90
25208;DHT22;13153;52.316;21.166;2023-11-21T00:20:08;-0.60;99.90
25208;DHT22;13153;52.316;21.166;2023-11-21T00:22:37;-0.70;99.90
25208;DHT22;13153;52.316;21.166;2023-11-21T00:25:04;-0.70;99.90
25208;DHT22;13153;52.316;21.166;2023-11-21T00:27:30;-0.70;99.90
25208;DHT22;13153;52.316;21.166;2023-11-21T00:29:56;-0.70;99.90
25208;DHT22;13153;52.316;21.166;2023-11-21T00:32:22;-0.70;99.90
25208;DHT22;13153;52.316;21.166;2023-11-21T00:34:48;-0.70;99.90
25208;DHT22;13153;52.316;21.166;2023-11-21T00:37:14;-0.70;99.90
25208;DHT22;13153;52.316;21.166;2023-11-21T00:39:40;-0.80;99.90
25208;DHT22;13153;52.316;21.166;2023-11-21T00:42:06;-0.70;99.90
25208;DHT22;13153;52.316;21.166;2023-11-21T00:44:32;-0.80;99.90
25208;DHT22;13153;52.316;21.166;2023-11-21T00:46:59;-0.70;99.90
25208;DHT22;13153;52.316;21.166;2023-11-21T00:49:25;-0.60;99.90
25208;DHT22;13153;52.316;21.166;2023-11-21T00:51:51;-0.60;99.90
25208;DHT22;13153;52.316;21.166;2023-11-21T00:54:17;-0.60;99.90
25208;DHT22;13153;52.316;21.166;2023-11-21T00:56:43;-0.60;99.90
25208;DHT22;13153;52.316;21.166;2023-11-21T00:59:09;-0.60;99.90
25208;DHT22;13153;52.316;21.166;2023-11-21T01:01:36;-0.60;99.90
25208;DHT22;13153;52.316;21.166;2023-11-21T01:04:03;-0.60;99.90
25208;DHT22;13153;52.316;21.166;2023-11-21T01:06:29;-0.70;99.90
25208;DHT22;13153;52.316;21.166;2023-11-21T01:08:55;-0.70;99.90
25208;DHT22;13153;52.316;21.166;2023-11-21T01:11:21;-0.80;99.90
25208;DHT22;13153;52.316;21.166;2023-11-21T01:13:47;-0.70;99.90
25208;DHT22;13153;52.316;21.166;2023-11-21T01:16:13;-0.70;99.90
25208;DHT22;13153;52.316;21.166;2023-11-21T01:18:38;-0.70;99.90
25208;DHT22;13153;52.316;21.166;2023-11-21T01:21:04;-0.60;99.90
25208;DHT22;13153;52.316;21.166;2023-11-21T01:23:30;-0.60;99.90
25208;DHT22;13153;52.316;21.166;2023-11-21T01:25:56;-0.70;99.90
25208;DHT22;13153;52.316;21.166;2023-11-21T01:28:23;-0.70;99.90
25208;DHT22;13153;52.316;21.166;2023-11-21T01:30:49;-0.80;99.90
25208;DHT22;13153;52.316;21.166;2023-11-21T01:33:15;-0.80;99.90
25208;DHT22;13153;52.316;21.166;2023-11-21T01:35:41;-0.80;99.90
25208;DHT22;13153;52.316;21.166;2023-11-21T01:38:07;-0.80;99.90
25208;DHT22;13153;52.316;21.166;2023-11-21T01:40:34;-0.80;99.90
25208;DHT22;13153;52.316;21.166;2023-11-21T01:43:00;-0.90;99.90
25208;DHT22;13153;52.316;21.166;2023-11-21T01:45:28;-0.80;99.90
25208;DHT22;13153;52.316;21.166;2023-11-21T01:47:56;-0.80;99.90
25208;DHT22;13153;52.316;21.166;2023-11-21T01:50:23;-0.70;99.90
25208;DHT22;13153;52.316;21.166;2023-11-21T01:52:50;-0.70;99.90
25208;DHT22;13153;52.316;21.166;2023-11-21T01:55:17;-0.80;99.90
25208;DHT22;13153;52.316;21.166;2023-11-21T01:57:44;-0.90;99.90
25208;DHT22;13153;52.316;21.166;2023-11-21T02:00:12;-0.90;99.90
25208;DHT22;13153;52.316;21.166;2023-11-21T02:02:45;-0.90;99.90
25208;DHT22;13153;52.316;21.166;2023-11-21T02:05:16;-0.90;99.90
25208;DHT22;13153;52.316;21.166;2023-11-21T02:07:44;-0.90;99.90
25208;DHT22;13153;52.316;21.166;2023-11-21T02:10:16;-0.90;99.90
25208;DHT22;13153;52.316;21.166;2023-11-21T02:12:42;-0.80;99.90
25208;DHT22;13153;52.316;21.166;2023-11-21T02:15:13;-0.80;99.90
25208;DHT22;13153;52.316;21.166;2023-11-21T02:17:49;-0.90;99.90
25208;DHT22;13153;52.316;21.166;2023-11-21T02:20:20;-0.90;99.90
25208;DHT22;13153;52.316;21.166;2023-11-21T02:22:53;-0.80;99.90
25208;DHT22;13153;52.316;21.166;2023-11-21T02:25:26;-0.90;99.90
25208;DHT22;13153;52.316;21.166;2023-11-21T02:27:54;-0.90;99.90
25208;DHT22;13153;52.316;21.166;2023-11-21T02:30:24;-0.90;99.90
25208;DHT22;13153;52.316;21.166;2023-11-21T02:32:54;-0.90;99.90
25208;DHT22;13153;52.316;21.166;2023-11-21T02:35:20;-0.90;99.90
25208;DHT22;13153;52.316;21.166;2023-11-21T02:37:47;-1.00;99.90
25208;DHT22;13153;52.316;21.166;2023-11-21T02:40:13;-0.90;99.90
25208;DHT22;13153;52.316;21.166;2023-11-21T02:42:44;-0.90;99.90
25208;DHT22;13153;52.316;21.166;2023-11-21T02:45:10;-0.90;99.90
25208;DHT22;13153;52.316;21.166;2023-11-21T02:47:38;-1.00;99.90
25208;DHT22;13153;52.316;21.166;2023-11-21T02:50:05;-0.90;99.90
25208;DHT22;13153;52.316;21.166;2023-11-21T02:52:33;-1.00;99.90
25208;DHT22;13153;52.316;21.166;2023-11-21T02:55:01;-0.90;99.90
25208;DHT22;13153;52.316;21.166;2023-11-21T02:57:27;-1.00;99.90
25208;DHT22;13153;52.316;21.166;2023-11-21T02:59:54;-1.00;99.90
25208;DHT22;13153;52.316;21.166;2023-11-21T03:02:20;-0.90;99.90
25208;DHT22;13153;52.316;21.166;2023-11-21T03:04:46;-1.00;99.90
25208;DHT22;13153;52.316;21.166;2023-11-21T03:07:13;-1.00;99.90
25208;DHT22;13153;52.316;21.166;2023-11-21T03:09:39;-1.00;99.90
25208;DHT22;13153;52.316;21.166;2023-11-21T03:12:05;-1.00;99.90
25208;DHT22;13153;52.316;21.166;2023-11-21T03:14:31;-1.00;99.90
25208;DHT22;13153;52.316;21.166;2023-11-21T03:16:57;-1.00;99.90
25208;DHT22;13153;52.316;21.166;2023-11-21T03:19:22;-1.00;99.90
25208;DHT22;13153;52.316;21.166;2023-11-21T03:21:49;-1.10;99.90
25208;DHT22;13153;52.316;21.166;2023-11-21T03:24:14;-1.00;99.90
25208;DHT22;13153;52.316;21.166;2023-11-21T03:26:44;-1.00;99.90
25208;DHT22;13153;52.316;21.166;2023-11-21T03:29:12;-1.00;99.90
25208;DHT22;13153;52.316;21.166;2023-11-21T03:31:37;-1.00;99.90
25208;DHT22;13153;52.316;21.166;2023-11-21T03:34:03;-1.00;99.90
25208;DHT22;13153;52.316;21.166;2023-11-21T03:36:29;-1.10;99.90
25208;DHT22;13153;52.316;21.166;2023-11-21T03:38:55;-1.10;99.90
25208;DHT22;13153;52.316;21.166;2023-11-21T03:41:21;-1.10;99.90
25208;DHT22;13153;52.316;21.166;2023-11-21T03:43:47;-1.10;99.90
25208;DHT22;13153;52.316;21.166;2023-11-21T03:46:12;-1.10;99.90
25208;DHT22;13153;52.316;21.166;2023-11-21T03:48:38;-1.10;99.90
25208;DHT22;13153;52.316;21.166;2023-11-21T03:51:04;-1.10;99.90
25208;DHT22;13153;52.316;21.166;2023-11-21T03:53:30;-1.20;99.90
25208;DHT22;13153;52.316;21.166;2023-11-21T03:55:57;-1.10;99.90
25208;DHT22;13153;52.316;21.166;2023-11-21T03:58:23;-1.20;99.90
25208;DHT22;13153;52.316;21.166;2023-11-21T04:00:49;-1.20;99.90
25208;DHT22;13153;52.316;21.166;2023-11-21T04:03:15;-1.10;99.90
25208;DHT22;13153;52.316;21.166;2023-11-21T04:05:41;-1.20;99.90
25208;DHT22;13153;52.316;21.166;2023-11-21T04:08:07;-1.10;99.90
25208;DHT22;13153;52.316;21.166;2023-11-21T04:10:32;-1.20;99.90
25208;DHT22;13153;52.316;21.166;2023-11-21T04:12:58;-1.30;99.90
25208;DHT22;13153;52.316;21.166;2023-11-21T04:15:25;-1.30;99.90
25208;DHT22;13153;52.316;21.166;2023-11-21T04:17:51;-1.20;99.90
25208;DHT22;13153;52.316;21.166;2023-11-21T04:20:17;-1.30;99.90
25208;DHT22;13153;52.316;21.166;2023-11-21T04:22:44;-1.40;99.90
25208;DHT22;13153;52.316;21.166;2023-11-21T04:25:11;-1.30;99.90
25208;DHT22;13153;52.316;21.166;2023-11-21T04:27:41;-1.30;99.90
25208;DHT22;13153;52.316;21.166;2023-11-21T04:30:11;-1.30;99.90
25208;DHT22;13153;52.316;21.166;2023-11-21T04:32:38;-1.30;99.90
25208;DHT22;13153;52.316;21.166;2023-11-21T04:35:05;-1.30;99.90
25208;DHT22;13153;52.316;21.166;2023-11-21T04:37:31;-1.30;99.90
25208;DHT22;13153;52.316;21.166;2023-11-21T04:39:57;-1.30;99.90
25208;DHT22;13153;52.316;21.166;2023-11-21T04:42:22;-1.30;99.90
25208;DHT22;13153;52.316;21.166;2023-11-21T04:44:49;-1.30;99.90
25208;DHT22;13153;52.316;21.166;2023-11-21T04:47:15;-1.30;99.90
25208;DHT22;13153;52.316;21.166;2023-11-21T04:49:43;-1.30;99.90
25208;DHT22;13153;52.316;21.166;2023-11-21T04:52:12;-1.20;99.90
25208;DHT22;13153;52.316;21.166;2023-11-21T04:54:38;-1.20;99.90
25208;DHT22;13153;52.316;21.166;2023-11-21T04:57:05;-1.20;99.90
25208;DHT22;13153;52.316;21.166;2023-11-21T04:59:33;-1.20;99.90
25208;DHT22;13153;52.316;21.166;2023-11-21T05:01:59;-1.20;99.90
25208;DHT22;13153;52.316;21.166;2023-11-21T05:04:28;-1.20;99.90
25208;DHT22;13153;52.316;21.166;2023-11-21T05:06:54;-1.10;99.90
25208;DHT22;13153;52.316;21.166;2023-11-21T05:09:20;-1.20;99.90
25208;DHT22;13153;52.316;21.166;2023-11-21T05:11:47;-1.10;99.90
25208;DHT22;13153;52.316;21.166;2023-11-21T05:14:13;-1.10;99.90
25208;DHT22;13153;52.316;21.166;2023-11-21T05:16:39;-1.10;99.90
25208;DHT22;13153;52.316;21.166;2023-11-21T05:19:05;-1.10;99.90
25208;DHT22;13153;52.316;21.166;2023-11-21T05:21:31;-1.10;99.90
25208;DHT22;13153;52.316;21.166;2023-11-21T05:23:58;-1.20;99.90
25208;DHT22;13153;52.316;21.166;2023-11-21T05:26:24;-1.20;99.90
25208;DHT22;13153;52.316;21.166;2023-11-21T05:28:50;-1.20;99.90
25208;DHT22;13153;52.316;21.166;2023-11-21T05:31:16;-1.20;99.90
25208;DHT22;13153;52.316;21.166;2023-11-21T05:33:41;-1.20;99.90
25208;DHT22;13153;52.316;21.166;2023-11-21T05:36:07;-1.20;99.90
25208;DHT22;13153;52.316;21.166;2023-11-21T05:38:36;-1.20;99.90
25208;DHT22;13153;52.316;21.166;2023-11-21T05:41:02;-1.20;99.90
25208;DHT22;13153;52.316;21.166;2023-11-21T05:43:29;-1.30;99.90
25208;DHT22;13153;52.316;21.166;2023-11-21T05:45:56;-1.30;99.90
25208;DHT22;13153;52.316;21.166;2023-11-21T05:48:22;-1.20;99.90
25208;DHT22;13153;52.316;21.166;2023-11-21T05:50:48;-1.30;99.90
25208;DHT22;13153;52.316;21.166;2023-11-21T05:53:15;-1.30;99.90
25208;DHT22;13153;52.316;21.166;2023-11-21T05:55:42;-1.30;99.90
25208;DHT22;13153;52.316;21.166;2023-11-21T05:58:08;-1.30;99.90
25208;DHT22;13153;52.316;21.166;2023-11-21T06:00:34;-1.30;99.90
25208;DHT22;13153;52.316;21.166;2023-11-21T06:03:00;-1.30;99.90
25208;DHT22;13153;52.316;21.166;2023-11-21T06:05:26;-1.30;99.90
25208;DHT22;13153;52.316;21.166;2023-11-21T06:07:55;-1.40;99.90
25208;DHT22;13153;52.316;21.166;2023-11-21T06:10:24;-1.30;99.90
25208;DHT22;13153;52.316;21.166;2023-11-21T06:12:50;-1.30;99.90
25208;DHT22;13153;52.316;21.166;2023-11-21T06:15:17;-1.30;99.90
25208;DHT22;13153;52.316;21.166;2023-11-21T06:17:45;-1.30;99.90
25208;DHT22;13153;52.316;21.166;2023-11-21T06:20:15;-1.30;99.90
25208;DHT22;13153;52.316;21.166;2023-11-21T06:22:45;-1.20;99.90
25208;DHT22;13153;52.316;21.166;2023-11-21T06:25:13;-1.30;99.90
25208;DHT22;13153;52.316;21.166;2023-11-21T06:27:41;-1.20;99.90
25208;DHT22;13153;52.316;21.166;2023-11-21T06:30:08;-1.20;99.90
25208;DHT22;13153;52.316;21.166;2023-11-21T06:32:36;-1.20;99.90
25208;DHT22;13153;52.316;21.166;2023-11-21T06:35:05;-1.20;99.90
25208;DHT22;13153;52.316;21.166;2023-11-21T06:37:32;-1.20;99.90
25208;DHT22;13153;52.316;21.166;2023-11-21T06:39:59;-1.20;99.90
25208;DHT22;13153;52.316;21.166;2023-11-21T06:42:26;-1.20;99.90
25208;DHT22;13153;52.316;21.166;2023-11-21T06:44:52;-1.20;99.90
25208;DHT22;13153;52.316;21.166;2023-11-21T06:47:19;-1.20;99.90
25208;DHT22;13153;52.316;21.166;2023-11-21T06:49:50;-1.20;99.90
25208;DHT22;13153;52.316;21.166;2023-11-21T06:52:16;-1.20;99.90
25208;DHT22;13153;52.316;21.166;2023-11-21T06:54:43;-1.20;99.90
25208;DHT22;13153;52.316;21.166;2023-11-21T06:57:10;-1.20;99.90
25208;DHT22;13153;52.316;21.166;2023-11-21T06:59:36;-1.10;99.90
25208;DHT22;13153;52.316;21.166;2023-11-21T07:02:03;-1.20;99.90
25208;DHT22;13153;52.316;21.166;2023-11-21T07:04:32;-1.20;99.90
25208;DHT22;13153;52.316;21.166;2023-11-21T07:06:58;-1.20;99.90
25208;DHT22;13153;52.316;21.166;2023-11-21T07:09:24;-1.10;99.90
25208;DHT22;13153;52.316;21.166;2023-11-21T07:11:54;-1.10;99.90
25208;DHT22;13153;52.316;21.166;2023-11-21T07:14:20;-1.20;99.90
25208;DHT22;13153;52.316;21.166;2023-11-21T07:16:47;-1.20;99.90
25208;DHT22;13153;52.316;21.166;2023-11-21T07:19:13;-1.20;99.90
25208;DHT22;13153;52.316;21.166;2023-11-21T07:21:40;-1.10;99.90
25208;DHT22;13153;52.316;21.166;2023-11-21T07:24:07;-1.20;99.90
25208;DHT22;13153;52.316;21.166;2023-11-21T07:26:34;-1.20;99.90
25208;DHT22;13153;52.316;21.166;2023-11-21T07:29:01;-1.20;99.90
25208;DHT22;13153;52.316;21.166;2023-11-21T07:31:28;-1.20;99.90
25208;DHT22;13153;52.316;21.166;2023-11-21T07:33:55;-1.20;99.90
25208;DHT22;13153;52.316;21.166;2023-11-21T07:36:24;-1.10;99.90
25208;DHT22;13153;52.316;21.166;2023-11-21T07:38:50;-1.10;99.90
25208;DHT22;13153;52.316;21.166;2023-11-21T07:41:17;-1.10;99.90
25208;DHT22;13153;52.316;21.166;2023-11-21T07:43:46;-1.10;99.90
25208;DHT22;13153;52.316;21.166;2023-11-21T07:46:13;-1.10;99.90
25208;DHT22;13153;52.316;21.166;2023-11-21T07:48:39;-1.10;99.90
25208;DHT22;13153;52.316;21.166;2023-11-21T07:51:11;-1.10;99.90
25208;DHT22;13153;52.316;21.166;2023-11-21T07:53:38;-1.10;99.90
25208;DHT22;13153;52.316;21.166;2023-11-21T07:56:06;-1.10;99.90
25208;DHT22;13153;52.316;21.166;2023-11-21T07:58:36;-1.10;99.90
25208;DHT22;13153;52.316;21.166;2023-11-21T08:01:02;-1.10;99.90
25208;DHT22;13153;52.316;21.166;2023-11-21T08:03:29;-1.20;99.90
25208;DHT22;13153;52.316;21.166;2023-11-21T08:05:56;-1.10;99.90
25208;DHT22;13153;52.316;21.166;2023-11-21T08:08:23;-1.10;99.90
25208;DHT22;13153;52.316;21.166;2023-11-21T08:10:49;-1.10;99.90
25208;DHT22;13153;52.316;21.166;2023-11-21T08:13:22;-1.00;99.90
25208;DHT22;13153;52.316;21.166;2023-11-21T08:15:49;-1.00;99.90
25208;DHT22;13153;52.316;21.166;2023-11-21T08:18:14;-1.00;99.90
25208;DHT22;13153;52.316;21.166;2023-11-21T08:20:41;-1.00;99.90
25208;DHT22;13153;52.316;21.166;2023-11-21T08:23:07;-1.10;99.90
25208;DHT22;13153;52.316;21.166;2023-11-21T08:25:33;-1.00;99.90
25208;DHT22;13153;52.316;21.166;2023-11-21T08:28:00;-1.00;99.90
25208;DHT22;13153;52.316;21.166;2023-11-21T08:30:27;-1.00;99.90
25208;DHT22;13153;52.316;21.166;2023-11-21T08:32:55;-1.00;99.90
25208;DHT22;13153;52.316;21.166;2023-11-21T08:35:24;-1.00;99.90
25208;DHT22;13153;52.316;21.166;2023-11-21T08:37:53;-1.10;99.90
25208;DHT22;13153;52.316;21.166;2023-11-21T08:40:19;-1.00;99.90
25208;DHT22;13153;52.316;21.166;2023-11-21T08:42:46;-1.00;99.90
25208;DHT22;13153;52.316;21.166;2023-11-21T08:45:16;-1.00;99.90
25208;DHT22;13153;52.316;21.166;2023-11-21T08:47:43;-0.90;99.90
25208;DHT22;13153;52.316;21.166;2023-11-21T08:50:11;-0.90;99.90
25208;DHT22;13153;52.316;21.166;2023-11-21T08:52:38;-0.90;99.90
25208;DHT22;13153;52.316;21.166;2023-11-21T08:55:06;-0.90;99.90
25208;DHT22;13153;52.316;21.166;2023-11-21T08:57:42;-1.00;99.90
25208;DHT22;13153;52.316;21.166;2023-11-21T09:00:10;-1.00;99.90
25208;DHT22;13153;52.316;21.166;2023-11-21T09:02:41;-1.00;99.90
25208;DHT22;13153;52.316;21.166;2023-11-21T09:05:08;-1.00;99.90
25208;DHT22;13153;52.316;21.166;2023-11-21T09:07:35;-1.00;99.90
25208;DHT22;13153;52.316;21.166;2023-11-21T09:10:04;-1.00;99.90
25208;DHT22;13153;52.316;21.166;2023-11-21T09:15:43;-1.00;99.90
25208;DHT22;13153;52.316;21.166;2023-11-21T09:18:13;-0.90;99.90
25208;DHT22;13153;52.316;21.166;2023-11-21T09:20:39;-0.80;99.90
25208;DHT22;13153;52.316;21.166;2023-11-21T09:23:05;-0.90;99.90
25208;DHT22;13153;52.316;21.166;2023-11-21T09:25:30;-0.90;99.90
25208;DHT22;13153;52.316;21.166;2023-11-21T09:27:56;-0.90;99.90
25208;DHT22;13153;52.316;21.166;2023-11-21T09:30:23;-0.90;99.90
25208;DHT22;13153;52.316;21.166;2023-11-21T09:32:53;-0.90;99.90
25208;DHT22;13153;52.316;21.166;2023-11-21T09:35:18;-0.80;99.90
25208;DHT22;13153;52.316;21.166;2023-11-21T09:37:44;-0.70;99.90
25208;DHT22;13153;52.316;21.166;2023-11-21T09:40:11;-0.70;99.90
25208;DHT22;13153;52.316;21.166;2023-11-21T09:42:57;-0.70;99.90
25208;DHT22;13153;52.316;21.166;2023-11-21T09:45:34;-0.80;99.90
25208;DHT22;13153;52.316;21.166;2023-11-21T09:48:01;-0.80;99.90
25208;DHT22;13153;52.316;21.166;2023-11-21T09:50:28;-0.80;99.90
25208;DHT22;13153;52.316;21.166;2023-11-21T09:53:17;-0.80;99.90
25208;DHT22;13153;52.316;21.166;2023-11-21T09:55:51;-0.80;99.90
25208;DHT22;13153;52.316;21.166;2023-11-21T09:58:18;-0.80;99.90
25208;DHT22;13153;52.316;21.166;2023-11-21T10:00:46;-0.80;99.90
25208;DHT22;13153;52.316;21.166;2023-11-21T10:03:13;-0.80;99.90
25208;DHT22;13153;52.316;21.166;2023-11-21T10:05:42;-0.80;99.90
25208;DHT22;13153;52.316;21.166;2023-11-21T10:08:10;-0.80;99.90
25208;DHT22;13153;52.316;21.166;2023-11-21T10:10:38;-0.80;99.90
25208;DHT22;13153;52.316;21.166;2023-11-21T10:13:13;-0.80;99.90
25208;DHT22;13153;52.316;21.166;2023-11-21T10:15:42;-0.80;99.90
25208;DHT22;13153;52.316;21.166;2023-11-21T10:18:15;-0.80;99.90
25208;DHT22;13153;52.316;21.166;2023-11-21T10:20:42;-0.80;99.90
25208;DHT22;13153;52.316;21.166;2023-11-21T10:23:09;-0.80;99.90
25208;DHT22;13153;52.316;21.166;2023-11-21T10:25:37;-0.70;99.90
25208;DHT22;13153;52.316;21.166;2023-11-21T10:28:04;-0.80;99.90
25208;DHT22;13153;52.316;21.166;2023-11-21T10:30:36;-0.80;99.90
25208;DHT22;13153;52.316;21.166;2023-11-21T10:33:07;-0.70;99.90
25208;DHT22;13153;52.316;21.166;2023-11-21T10:35:45;-0.80;99.90
25208;DHT22;13153;52.316;21.166;2023-11-21T10:38:13;-0.80;99.90
25208;DHT22;13153;52.316;21.166;2023-11-21T10:40:40;-0.70;99.90
25208;DHT22;13153;52.316;21.166;2023-11-21T10:43:08;-0.70;99.90
25208;DHT22;13153;52.316;21.166;2023-11-21T10:45:36;-0.70;99.90
25208;DHT22;13153;52.316;21.166;2023-11-21T10:48:05;-0.70;99.90
25208;DHT22;13153;52.316;21.166;2023-11-21T10:50:36;-0.80;99.90
25208;DHT22;13153;52.316;21.166;2023-11-21T10:53:06;-0.70;99.90
25208;DHT22;13153;52.316;21.166;2023-11-21T10:55:32;-0.70;99.90
25208;DHT22;13153;52.316;21.166;2023-11-21T10:58:03;-0.80;99.90
25208;DHT22;13153;52.316;21.166;2023-11-21T11:00:32;-0.70;99.90
25208;DHT22;13153;52.316;21.166;2023-11-21T11:03:00;-0.70;99.90
25208;DHT22;13153;52.316;21.166;2023-11-21T11:05:28;-0.80;99.90
25208;DHT22;13153;52.316;21.166;2023-11-21T11:08:04;-0.70;99.90
25208;DHT22;13153;52.316;21.166;2023-11-21T11:10:31;-0.60;99.90
25208;DHT22;13153;52.316;21.166;2023-11-21T11:12:58;-0.70;99.90
25208;DHT22;13153;52.316;21.166;2023-11-21T11:15:25;-0.70;99.90
25208;DHT22;13153;52.316;21.166;2023-11-21T11:17:53;-0.70;99.90
25208;DHT22;13153;52.316;21.166;2023-11-21T11:20:24;-0.80;99.90
25208;DHT22;13153;52.316;21.166;2023-11-21T11:35:25;-0.90;99.90
25208;DHT22;13153;52.316;21.166;2023-11-21T11:38:03;-1.00;99.90
25208;DHT22;13153;52.316;21.166;2023-11-21T11:40:45;-1.00;99.90
25208;DHT22;13153;52.316;21.166;2023-11-21T11:43:12;-1.00;99.90
25208;DHT22;13153;52.316;21.166;2023-11-21T11:45:38;-0.90;99.90
25208;DHT22;13153;52.316;21.166;2023-11-21T11:48:08;-0.90;99.90
25208;DHT22;13153;52.316;21.166;2023-11-21T11:50:56;-0.90;99.90
25208;DHT22;13153;52.316;21.166;2023-11-21T11:53:33;-0.90;99.90
25208;DHT22;13153;52.316;21.166;2023-11-21T11:59:04;-0.80;99.90
25208;DHT22;13153;52.316;21.166;2023-11-21T12:01:35;-0.80;99.90
25208;DHT22;13153;52.316;21.166;2023-11-21T12:06:51;-0.80;99.90
25208;DHT22;13153;52.316;21.166;2023-11-21T12:09:22;-0.80;99.90
25208;DHT22;13153;52.316;21.166;2023-11-21T12:11:49;-0.80;99.90
25208;DHT22;13153;52.316;21.166;2023-11-21T12:14:16;-0.80;99.90
25208;DHT22;13153;52.316;21.166;2023-11-21T12:16:43;-0.90;99.90
25208;DHT22;13153;52.316;21.166;2023-11-21T12:19:13;-0.90;99.90
25208;DHT22;13153;52.316;21.166;2023-11-21T12:21:39;-0.80;99.90
25208;DHT22;13153;52.316;21.166;2023-11-21T12:24:09;-0.80;99.90
25208;DHT22;13153;52.316;21.166;2023-11-21T12:26:35;-0.90;99.90
25208;DHT22;13153;52.316;21.166;2023-11-21T12:29:02;-0.80;99.90
25208;DHT22;13153;52.316;21.166;2023-11-21T12:31:30;-0.80;99.90
25208;DHT22;13153;52.316;21.166;2023-11-21T12:33:56;-0.80;99.90
25208;DHT22;13153;52.316;21.166;2023-11-21T12:36:23;-0.80;99.90
25208;DHT22;13153;52.316;21.166;2023-11-21T12:38:51;-0.80;99.90
25208;DHT22;13153;52.316;21.166;2023-11-21T12:41:16;-0.80;99.90
25208;DHT22;13153;52.316;21.166;2023-11-21T12:43:43;-0.80;99.90
25208;DHT22;13153;52.316;21.166;2023-11-21T12:46:11;-0.70;99.90
25208;DHT22;13153;52.316;21.166;2023-11-21T12:48:41;-0.80;99.90
25208;DHT22;13153;52.316;21.166;2023-11-21T12:51:08;-0.80;99.90
25208;DHT22;13153;52.316;21.166;2023-11-21T12:53:35;-0.70;99.90
25208;DHT22;13153;52.316;21.166;2023-11-21T12:56:09;-0.80;99.90
25208;DHT22;13153;52.316;21.166;2023-11-21T12:58:37;-0.70;99.90
25208;DHT22;13153;52.316;21.166;2023-11-21T13:01:06;-0.70;99.90
25208;DHT22;13153;52.316;21.166;2023-11-21T13:03:38;-0.70;99.90
25208;DHT22;13153;52.316;21.166;2023-11-21T13:06:06;-0.80;99.90
25208;DHT22;13153;52.316;21.166;2023-11-21T13:08:33;-0.80;99.90
25208;DHT22;13153;52.316;21.166;2023-11-21T13:10:59;-0.90;99.90
25208;DHT22;13153;52.316;21.166;2023-11-21T13:13:28;-0.90;99.90
25208;DHT22;13153;52.316;21.166;2023-11-21T13:15:59;-0.90;99.90
25208;DHT22;13153;52.316;21.166;2023-11-21T13:18:28;-0.80;99.90
25208;DHT22;13153;52.316;21.166;2023-11-21T13:21:04;-0.80;99.90
25208;DHT22;13153;52.316;21.166;2023-11-21T13:23:36;-0.80;99.90
25208;DHT22;13153;52.316;21.166;2023-11-21T13:26:03;-0.90;99.90
25208;DHT22;13153;52.316;21.166;2023-11-21T13:28:35;-0.90;99.90
25208;DHT22;13153;52.316;21.166;2023-11-21T13:31:04;-0.90;99.90
25208;DHT22;13153;52.316;21.166;2023-11-21T13:33:49;-0.90;99.90
25208;DHT22;13153;52.316;21.166;2023-11-21T13:36:22;-0.90;99.90
25208;DHT22;13153;52.316;21.166;2023-11-21T13:38:52;-0.80;99.90
25208;DHT22;13153;52.316;21.166;2023-11-21T13:41:20;-0.80;99.90
25208;DHT22;13153;52.316;21.166;2023-11-21T13:43:53;-0.90;99.90
25208;DHT22;13153;52.316;21.166;2023-11-21T13:46:25;-0.90;99.90
25208;DHT22;13153;52.316;21.166;2023-11-21T13:48:51;-0.90;99.90
25208;DHT22;13153;52.316;21.166;2023-11-21T13:51:21;-0.80;99.90
25208;DHT22;13153;52.316;21.166;2023-11-21T13:53:56;-0.80;99.90
25208;DHT22;13153;52.316;21.166;2023-11-21T13:56:21;-0.80;99.90
25208;DHT22;13153;52.316;21.166;2023-11-21T13:58:52;-0.80;99.90
25208;DHT22;13153;52.316;21.166;2023-11-21T14:01:20;-0.80;99.90
25208;DHT22;13153;52.316;21.166;2023-11-21T14:03:59;-0.80;99.90
25208;DHT22;13153;52.316;21.166;2023-11-21T14:06:48;-0.80;99.90
25208;DHT22;13153;52.316;21.166;2023-11-21T14:09:20;-0.90;99.90
25208;DHT22;13153;52.316;21.166;2023-11-21T14:12:01;-0.80;99.90
25208;DHT22;13153;52.316;21.166;2023-11-21T14:14:31;-0.90;99.90
25208;DHT22;13153;52.316;21.166;2023-11-21T14:16:57;-0.90;99.90
25208;DHT22;13153;52.316;21.166;2023-11-21T14:19:24;-0.90;99.90
25208;DHT22;13153;52.316;21.166;2023-11-21T14:21:55;-0.90;99.90
25208;DHT22;13153;52.316;21.166;2023-11-21T14:24:21;-0.90;99.90
25208;DHT22;13153;52.316;21.166;2023-11-21T14:26:49;-0.90;99.90
25208;DHT22;13153;52.316;21.166;2023-11-21T14:29:18;-0.90;99.90
25208;DHT22;13153;52.316;21.166;2023-11-21T14:31:49;-0.90;99.90
25208;DHT22;13153;52.316;21.166;2023-11-21T14:34:22;-0.90;99.90
25208;DHT22;13153;52.316;21.166;2023-11-21T14:36:48;-0.90;99.90
25208;DHT22;13153;52.316;21.166;2023-11-21T14:39:15;-0.90;99.90
25208;DHT22;13153;52.316;21.166;2023-11-21T14:41:54;-0.90;99.90
25208;DHT22;13153;52.316;21.166;2023-11-21T14:44:24;-1.00;99.90
25208;DHT22;13153;52.316;21.166;2023-11-21T14:46:54;-1.00;99.90
25208;DHT22;13153;52.316;21.166;2023-11-21T14:49:22;-1.00;99.90
25208;DHT22;13153;52.316;21.166;2023-11-21T14:51:53;-1.00;99.90
25208;DHT22;13153;52.316;21.166;2023-11-21T14:54:29;-1.00;99.90
25208;DHT22;13153;52.316;21.166;2023-11-21T14:57:13;-1.00;99.90
25208;DHT22;13153;52.316;21.166;2023-11-21T14:59:48;-0.90;99.90
25208;DHT22;13153;52.316;21.166;2023-11-21T15:02:18;-1.00;99.90
25208;DHT22;13153;52.316;21.166;2023-11-21T15:04:48;-1.00;99.90
25208;DHT22;13153;52.316;21.166;2023-11-21T15:07:18;-1.00;99.90
25208;DHT22;13153;52.316;21.166;2023-11-21T15:09:44;-1.00;99.90
25208;DHT22;13153;52.316;21.166;2023-11-21T15:12:11;-1.00;99.90
25208;DHT22;13153;52.316;21.166;2023-11-21T15:14:47;-1.00;99.90
25208;DHT22;13153;52.316;21.166;2023-11-21T15:17:16;-1.00;99.90
25208;DHT22;13153;52.316;21.166;2023-11-21T15:19:51;-1.00;99.90
25208;DHT22;13153;52.316;21.166;2023-11-21T15:22:18;-1.00;99.90
25208;DHT22;13153;52.316;21.166;2023-11-21T15:24:44;-1.10;99.90
25208;DHT22;13153;52.316;21.166;2023-11-21T15:27:12;-1.10;99.90
25208;DHT22;13153;52.316;21.166;2023-11-21T15:29:39;-1.10;99.90
25208;DHT22;13153;52.316;21.166;2023-11-21T15:32:06;-1.10;99.90
25208;DHT22;13153;52.316;21.166;2023-11-21T15:34:33;-1.10;99.90
25208;DHT22;13153;52.316;21.166;2023-11-21T15:37:00;-1.10;99.90
25208;DHT22;13153;52.316;21.166;2023-11-21T15:39:28;-1.10;99.90
25208;DHT22;13153;52.316;21.166;2023-11-21T15:41:56;-1.10;99.90